createdAt,value
2022-10-21T00:01:42.508Z,7.03
2022-10-21T00:04:09.502Z,2.53
2022-10-21T00:06:36.356Z,7.82
2022-10-21T00:09:03.348Z,7.28
2022-10-21T00:11:30.230Z,5.32
2022-10-21T00:13:57.073Z,7.45
2022-10-21T00:16:23.995Z,6.63
2022-10-21T00:18:50.920Z,5.65
2022-10-21T00:21:22.810Z,5.20
2022-10-21T00:23:50.305Z,4.00
2022-10-21T00:26:18.813Z,4.82
2022-10-21T00:28:45.672Z,5.22
2022-10-21T00:31:14.377Z,6.15
2022-10-21T00:33:42.155Z,4.20
2022-10-21T00:36:15.014Z,4.25
2022-10-21T00:38:44.907Z,8.27
2022-10-21T00:41:13.391Z,2.55
2022-10-21T00:44:13.678Z,5.50
2022-10-21T00:46:54.010Z,2.83
2022-10-21T00:49:53.389Z,5.82
2022-10-21T00:52:22.401Z,6.13
2022-10-21T00:54:52.961Z,2.65
2022-10-21T00:57:21.758Z,9.48
2022-10-21T00:59:53.814Z,2.13
2022-10-21T01:02:21.760Z,5.35
2022-10-21T01:04:57.493Z,3.08
2022-10-21T01:07:24.882Z,4.68
2022-10-21T01:09:51.807Z,3.67
2022-10-21T01:12:27.760Z,5.72
2022-10-21T01:20:31.611Z,5.93
2022-10-21T01:23:35.588Z,2.13
2022-10-21T01:26:21.092Z,5.70
2022-10-21T01:29:12.230Z,3.78
2022-10-21T01:31:42.448Z,8.88
2022-10-21T01:34:27.161Z,4.53
2022-10-21T01:36:58.578Z,4.00
2022-10-21T01:39:57.619Z,5.28
2022-10-21T01:42:42.780Z,5.07
2022-10-21T01:45:35.873Z,4.45
2022-10-21T01:48:16.017Z,4.65
2022-10-21T01:50:49.386Z,2.80
2022-10-21T01:53:17.627Z,1.60
2022-10-21T01:55:46.017Z,2.53
2022-10-21T01:58:19.579Z,2.88
2022-10-21T02:00:48.536Z,2.13
2022-10-21T02:03:21.053Z,4.05
2022-10-21T02:05:47.917Z,2.05
2022-10-21T02:08:15.111Z,6.45
2022-10-21T02:10:50.878Z,3.05
2022-10-21T02:13:25.288Z,2.38
2022-10-21T02:15:59.941Z,5.43
2022-10-21T02:18:27.205Z,2.13
2022-10-21T02:21:05.238Z,11.23
2022-10-21T02:23:42.994Z,3.08
2022-10-21T02:26:10.467Z,2.55
2022-10-21T02:31:22.553Z,1.88
2022-10-21T02:34:30.322Z,5.47
2022-10-21T02:37:26.157Z,1.48
2022-10-21T02:40:18.994Z,1.63
2022-10-21T02:42:51.563Z,5.53
2022-10-21T02:45:18.712Z,2.58
2022-10-21T02:47:48.431Z,6.47
2022-10-21T02:50:15.457Z,5.05
2022-10-21T02:52:42.380Z,2.08
2022-10-21T02:55:09.635Z,3.08
2022-10-21T02:57:36.900Z,2.60
2022-10-21T03:00:06.143Z,2.33
2022-10-21T03:02:33.221Z,8.52
2022-10-21T03:05:00.105Z,2.40
2022-10-21T03:07:26.956Z,5.18
2022-10-21T03:09:53.950Z,2.83
2022-10-21T03:12:20.897Z,1.60
2022-10-21T03:14:47.762Z,3.33
2022-10-21T03:17:14.610Z,2.60
2022-10-21T03:19:41.452Z,2.80
2022-10-21T03:22:08.289Z,4.30
2022-10-21T03:24:35.146Z,1.75
2022-10-21T03:27:02.889Z,3.05
2022-10-21T03:29:29.805Z,3.65
2022-10-21T03:31:56.673Z,6.40
2022-10-21T03:34:23.586Z,5.95
2022-10-21T03:36:50.432Z,3.63
2022-10-21T03:39:17.303Z,6.10
2022-10-21T03:41:44.164Z,2.10
2022-10-21T03:44:11.072Z,4.50
2022-10-21T03:46:38.657Z,5.47
2022-10-21T03:49:09.079Z,3.22
2022-10-21T03:51:39.013Z,3.85
2022-10-21T03:54:06.012Z,4.45
2022-10-21T03:56:33.038Z,4.95
2022-10-21T03:59:00.035Z,2.90
2022-10-21T04:01:27.599Z,1.50
2022-10-21T04:03:54.622Z,6.95
2022-10-21T04:06:21.587Z,3.90
2022-10-21T04:08:48.501Z,8.55
2022-10-21T04:11:15.565Z,8.13
2022-10-21T04:13:42.540Z,2.72
2022-10-21T04:16:14.992Z,5.85
2022-10-21T04:18:41.859Z,4.05
2022-10-21T04:21:08.988Z,5.75
2022-10-21T04:23:36.523Z,4.68
2022-10-21T04:26:04.583Z,4.38
2022-10-21T04:28:31.749Z,6.63
2022-10-21T04:30:58.738Z,18.90
2022-10-21T04:33:25.818Z,10.68
2022-10-21T04:35:56.064Z,17.13
2022-10-21T04:38:23.629Z,17.42
2022-10-21T04:41:01.554Z,26.58
2022-10-21T04:43:29.244Z,37.17
2022-10-21T04:45:56.628Z,23.33
2022-10-21T04:48:24.266Z,30.63
2022-10-21T04:50:53.037Z,19.52
2022-10-21T04:53:21.047Z,23.13
2022-10-21T04:55:54.758Z,22.52
2022-10-21T04:58:22.432Z,41.95
2022-10-21T05:00:51.332Z,30.00
2022-10-21T05:03:19.375Z,33.63
2022-10-21T05:05:50.389Z,34.05
2022-10-21T05:08:17.324Z,20.88
2022-10-21T05:10:44.345Z,18.80
2022-10-21T05:13:11.484Z,22.77
2022-10-21T05:15:38.492Z,21.00
2022-10-21T05:18:05.455Z,10.88
2022-10-21T05:20:32.411Z,7.53
2022-10-21T05:22:59.352Z,21.75
2022-10-21T05:25:28.177Z,13.55
2022-10-21T05:27:57.377Z,15.13
2022-10-21T05:30:24.323Z,7.43
2022-10-21T05:32:51.226Z,9.00
2022-10-21T05:35:18.226Z,11.68
2022-10-21T05:37:45.093Z,6.97
2022-10-21T05:40:12.409Z,6.60
2022-10-21T05:42:39.592Z,5.03
2022-10-21T05:45:07.421Z,6.05
2022-10-21T05:47:34.321Z,14.82
2022-10-21T05:50:01.194Z,8.75
2022-10-21T05:52:28.105Z,17.85
2022-10-21T05:54:55.027Z,8.38
2022-10-21T05:57:21.856Z,12.60
2022-10-21T05:59:48.843Z,7.75
2022-10-21T06:02:15.867Z,22.13
2022-10-21T06:04:42.784Z,9.23
2022-10-21T06:07:10.085Z,21.42
2022-10-21T06:09:37.985Z,16.25
2022-10-21T06:12:05.744Z,12.65
2022-10-21T06:14:32.596Z,11.60
2022-10-21T06:22:38.988Z,9.30
2022-10-21T06:25:06.223Z,15.70
2022-10-21T06:27:33.120Z,7.53
2022-10-21T06:30:00.102Z,14.25
2022-10-21T06:32:27.025Z,7.57
2022-10-21T06:34:54.442Z,5.53
2022-10-21T06:37:21.413Z,2.15
2022-10-21T06:39:48.339Z,3.15
2022-10-21T06:42:16.045Z,6.93
2022-10-21T06:44:47.511Z,4.82
2022-10-21T06:47:14.443Z,5.32
2022-10-21T06:49:41.393Z,8.35
2022-10-21T06:52:08.361Z,7.10
2022-10-21T06:54:35.378Z,10.20
2022-10-21T06:57:03.377Z,4.65
2022-10-21T06:59:31.178Z,3.13
2022-10-21T07:02:00.965Z,8.00
2022-10-21T07:04:29.414Z,10.05
2022-10-21T07:06:56.392Z,11.18
2022-10-21T07:09:23.394Z,8.23
2022-10-21T07:11:50.279Z,14.23
2022-10-21T07:14:17.175Z,7.40
2022-10-21T07:16:44.118Z,14.38
2022-10-21T07:19:11.127Z,17.30
2022-10-21T07:21:38.387Z,9.10
2022-10-21T07:24:05.383Z,8.98
2022-10-21T07:26:34.376Z,6.13
2022-10-21T07:29:01.723Z,7.55
2022-10-21T07:31:31.867Z,11.45
2022-10-21T07:34:00.624Z,12.70
2022-10-21T07:36:30.729Z,9.00
2022-10-21T07:39:01.096Z,5.05
2022-10-21T07:41:31.917Z,12.60
2022-10-21T07:43:59.131Z,10.45
2022-10-21T07:46:26.388Z,7.05
2022-10-21T07:48:54.049Z,13.32
2022-10-21T07:53:10.927Z,10.30
2022-10-21T07:55:39.446Z,12.35
2022-10-21T07:58:06.352Z,11.13
2022-10-21T08:00:33.258Z,11.07
2022-10-21T08:03:00.252Z,12.43
2022-10-21T08:05:27.416Z,6.35
2022-10-21T08:07:54.374Z,15.55
2022-10-21T08:10:21.494Z,6.03
2022-10-21T08:12:48.530Z,2.90
2022-10-21T08:15:15.565Z,7.90
2022-10-21T08:17:42.470Z,4.68
2022-10-21T08:20:09.875Z,1.30
2022-10-21T08:22:37.226Z,5.13
2022-10-21T08:25:04.714Z,2.00
2022-10-21T08:27:31.798Z,8.90
2022-10-21T08:29:58.597Z,7.80
2022-10-21T08:32:25.549Z,10.30
2022-10-21T08:34:52.462Z,7.80
2022-10-21T08:37:23.390Z,4.18
2022-10-21T08:39:52.477Z,10.98
2022-10-21T08:42:20.285Z,5.93
2022-10-21T08:44:55.729Z,9.50
2022-10-21T08:47:45.958Z,13.02
2022-10-21T08:50:17.210Z,9.82
2022-10-21T08:52:48.634Z,12.77
2022-10-21T08:55:33.921Z,17.52
2022-10-21T08:58:01.707Z,13.95
2022-10-21T09:00:34.380Z,16.33
2022-10-21T09:03:54.415Z,19.35
2022-10-21T09:06:39.579Z,18.98
2022-10-21T09:09:19.859Z,19.27
2022-10-21T09:11:56.330Z,17.80
2022-10-21T09:14:44.450Z,13.80
2022-10-21T09:18:02.223Z,8.57
2022-10-21T09:21:05.645Z,8.45
2022-10-21T09:23:54.587Z,9.52
2022-10-21T09:26:45.062Z,5.60
2022-10-21T09:29:27.109Z,5.88
2022-10-21T09:32:15.537Z,14.32
2022-10-21T09:35:18.061Z,7.78
2022-10-21T09:38:06.731Z,12.90
2022-10-21T09:40:34.134Z,5.30
2022-10-21T09:43:02.276Z,5.60
2022-10-21T09:45:36.300Z,9.93
2022-10-21T09:48:17.993Z,9.02
2022-10-21T09:51:04.058Z,12.60
2022-10-21T09:53:43.583Z,8.52
2022-10-21T09:56:34.076Z,5.38
2022-10-21T09:59:07.581Z,6.03
2022-10-21T10:01:36.364Z,5.03
2022-10-21T10:04:12.510Z,7.95
2022-10-21T10:06:42.609Z,15.00
2022-10-21T10:09:17.100Z,7.78
2022-10-21T10:12:14.225Z,7.32
2022-10-21T10:14:43.813Z,6.60
2022-10-21T10:17:29.352Z,7.10
2022-10-21T10:20:05.832Z,7.85
2022-10-21T10:22:58.376Z,7.22
2022-10-21T10:25:30.986Z,5.50
2022-10-21T10:28:02.119Z,14.00
2022-10-21T10:30:51.082Z,3.80
2022-10-21T10:33:25.185Z,4.10
2022-10-21T10:35:55.399Z,11.13
2022-10-21T10:38:30.901Z,14.38
2022-10-21T10:41:07.025Z,4.80
2022-10-21T10:43:37.381Z,10.40
2022-10-21T10:46:08.596Z,8.63
2022-10-21T10:48:38.541Z,2.70
2022-10-21T10:51:24.255Z,4.05
2022-10-21T10:54:17.851Z,1.88
2022-10-21T10:56:50.248Z,6.43
2022-10-21T10:59:23.205Z,7.28
2022-10-21T11:02:10.302Z,2.85
2022-10-21T11:04:58.436Z,5.72
2022-10-21T11:07:43.642Z,4.57
2022-10-21T11:10:33.914Z,3.33
2022-10-21T11:13:16.107Z,2.28
2022-10-21T11:15:51.935Z,4.53
2022-10-21T11:18:25.245Z,3.88
2022-10-21T11:21:15.407Z,6.15
2022-10-21T11:23:54.399Z,5.53
2022-10-21T11:26:43.393Z,11.32
2022-10-21T11:29:39.201Z,3.60
2022-10-21T11:35:16.803Z,1.80
2022-10-21T11:38:20.843Z,4.20
2022-10-21T11:41:02.068Z,6.50
2022-10-21T11:43:50.211Z,6.05
2022-10-21T11:46:32.117Z,5.50
2022-10-21T11:49:14.064Z,3.03
2022-10-21T11:52:06.991Z,4.65
2022-10-21T11:54:59.692Z,1.75
2022-10-21T11:57:46.450Z,4.55
2022-10-21T12:00:23.017Z,4.90
2022-10-21T12:03:36.983Z,1.23
2022-10-21T12:06:13.217Z,2.00
2022-10-21T12:08:56.169Z,5.68
2022-10-21T12:11:39.312Z,7.53
2022-10-21T12:14:21.326Z,2.28
2022-10-21T12:16:49.580Z,5.95
2022-10-21T12:19:16.834Z,1.77
2022-10-21T12:21:45.985Z,3.40
2022-10-21T12:24:21.887Z,4.43
2022-10-21T12:26:53.560Z,6.70
2022-10-21T12:29:20.344Z,2.88
2022-10-21T12:31:49.951Z,1.02
2022-10-21T12:34:17.477Z,2.60
2022-10-21T12:36:51.037Z,5.38
2022-10-21T12:39:33.053Z,10.27
2022-10-21T12:42:17.357Z,1.83
2022-10-21T12:44:50.086Z,2.75
2022-10-21T12:47:37.392Z,2.75
2022-10-21T12:50:19.270Z,1.10
2022-10-21T12:52:47.499Z,3.20
2022-10-21T12:55:25.856Z,4.20
2022-10-21T12:58:03.824Z,3.10
2022-10-21T13:00:30.719Z,2.53
2022-10-21T13:03:00.296Z,0.70
2022-10-21T13:05:39.239Z,4.05
2022-10-21T13:08:24.223Z,4.30
2022-10-21T13:11:06.432Z,2.47
2022-10-21T13:13:37.625Z,1.13
2022-10-21T13:16:19.952Z,1.20
2022-10-21T13:18:57.980Z,1.92
2022-10-21T13:21:34.063Z,3.72
2022-10-21T13:24:13.124Z,3.15
2022-10-21T13:27:05.140Z,2.80
2022-10-21T13:29:38.039Z,25.63
2022-10-21T13:32:14.037Z,2.13
2022-10-21T13:35:01.269Z,2.10
2022-10-21T13:37:37.799Z,9.65
2022-10-21T13:40:31.775Z,1.38
2022-10-21T13:43:03.219Z,7.70
2022-10-21T13:45:30.169Z,11.43
2022-10-21T13:48:03.189Z,7.85
2022-10-21T13:50:33.788Z,6.13
2022-10-21T13:53:05.562Z,5.50
2022-10-21T13:55:32.471Z,6.80
2022-10-21T13:57:59.437Z,5.28
2022-10-21T14:00:30.473Z,1.77
2022-10-21T14:03:03.319Z,24.13
2022-10-21T14:05:47.077Z,20.58
2022-10-21T14:08:42.298Z,3.13
2022-10-21T14:11:24.569Z,1.27
2022-10-21T14:13:51.811Z,2.10
2022-10-21T14:16:32.201Z,0.80
2022-10-21T14:19:01.392Z,11.00
2022-10-21T14:21:31.421Z,20.02
2022-10-21T14:23:58.677Z,6.18
2022-10-21T14:26:31.160Z,36.65
2022-10-21T14:29:04.220Z,10.45
2022-10-21T14:31:31.210Z,2.15
2022-10-21T14:33:58.287Z,2.03
2022-10-21T14:36:27.855Z,1.35
2022-10-21T14:38:59.224Z,4.43
2022-10-21T14:41:34.973Z,14.60
2022-10-21T14:44:16.251Z,2.88
2022-10-21T14:46:45.976Z,3.97
2022-10-21T14:49:22.553Z,18.75
2022-10-21T14:51:50.595Z,9.15
2022-10-21T14:54:36.133Z,8.63
2022-10-21T14:57:04.620Z,4.30
2022-10-21T14:59:39.525Z,5.68
2022-10-21T15:02:20.890Z,7.72
2022-10-21T15:05:00.224Z,5.60
2022-10-21T15:07:29.227Z,10.85
2022-10-21T15:10:02.123Z,6.80
2022-10-21T15:12:52.813Z,14.88
2022-10-21T15:15:39.782Z,12.88
2022-10-21T15:18:20.701Z,3.67
2022-10-21T15:20:56.652Z,15.88
2022-10-21T15:23:34.313Z,4.90
2022-10-21T15:26:34.220Z,7.45
2022-10-21T15:29:11.790Z,11.75
2022-10-21T15:31:38.773Z,9.60
2022-10-21T15:34:07.151Z,10.25
2022-10-21T15:36:37.452Z,13.98
2022-10-21T15:39:06.872Z,15.27
2022-10-21T15:41:36.447Z,28.95
2022-10-21T15:44:16.207Z,13.98
2022-10-21T15:46:46.931Z,14.05
2022-10-21T15:49:19.876Z,16.92
2022-10-21T15:51:48.062Z,19.25
2022-10-21T15:54:16.888Z,11.63
2022-10-21T15:56:45.535Z,12.88
2022-10-21T15:59:24.570Z,19.55
2022-10-21T16:01:52.072Z,14.90
2022-10-21T16:04:19.868Z,21.75
2022-10-21T16:06:50.094Z,9.80
2022-10-21T16:09:27.935Z,14.63
2022-10-21T16:12:00.773Z,16.83
2022-10-21T16:14:30.677Z,10.35
2022-10-21T16:16:59.155Z,10.43
2022-10-21T16:19:26.553Z,15.52
2022-10-21T16:21:53.665Z,18.00
2022-10-21T16:24:20.749Z,7.50
2022-10-21T16:26:49.557Z,11.00
2022-10-21T16:29:24.444Z,15.60
2022-10-21T16:31:52.137Z,22.02
2022-10-21T16:34:20.050Z,29.77
2022-10-21T16:36:47.008Z,27.58
2022-10-21T16:39:17.145Z,31.20
2022-10-21T16:41:44.123Z,20.73
2022-10-21T16:44:11.111Z,31.67
2022-10-21T16:46:51.159Z,34.20
2022-10-21T16:49:28.335Z,37.55
2022-10-21T16:51:57.625Z,45.85
2022-10-21T16:54:24.598Z,26.85
2022-10-21T16:56:54.776Z,30.85
2022-10-21T16:59:23.327Z,32.20
2022-10-21T17:01:50.413Z,33.58
2022-10-21T17:04:18.072Z,27.83
2022-10-21T17:06:44.971Z,26.27
2022-10-21T17:09:11.972Z,25.85
2022-10-21T17:11:40.995Z,28.23
2022-10-21T17:14:14.684Z,22.73
2022-10-21T17:16:41.553Z,22.20
2022-10-21T17:19:08.410Z,24.85
2022-10-21T17:21:35.351Z,21.95
2022-10-21T17:24:03.988Z,20.75
2022-10-21T17:26:31.372Z,23.08
2022-10-21T17:28:58.318Z,27.38
2022-10-21T17:31:27.721Z,24.85
2022-10-21T17:33:58.584Z,20.58
2022-10-21T17:36:25.574Z,19.50
2022-10-21T17:38:52.418Z,24.10
2022-10-21T17:41:20.573Z,27.85
2022-10-21T17:43:48.386Z,24.90
2022-10-21T17:46:25.690Z,24.60
2022-10-21T17:48:54.726Z,16.77
2022-10-21T17:51:24.232Z,18.55
2022-10-21T17:53:52.920Z,31.40
2022-10-21T17:56:20.813Z,18.38
2022-10-21T17:58:52.634Z,22.65
2022-10-21T18:01:20.335Z,19.98
2022-10-21T18:03:47.597Z,16.30
2022-10-21T18:06:15.826Z,24.85
2022-10-21T18:08:43.624Z,23.10
2022-10-21T18:11:13.162Z,27.52
2022-10-21T18:13:41.006Z,21.33
2022-10-21T18:16:17.534Z,16.30
2022-10-21T18:18:45.726Z,23.80
2022-10-21T18:21:19.372Z,23.00
2022-10-21T18:23:48.952Z,21.15
2022-10-21T18:26:19.621Z,14.88
2022-10-21T18:28:51.444Z,18.88
2022-10-21T18:31:23.747Z,11.77
2022-10-21T18:33:54.184Z,14.35
2022-10-21T18:36:22.173Z,28.00
2022-10-21T18:38:49.291Z,18.80
2022-10-21T18:41:20.621Z,14.15
2022-10-21T18:43:50.858Z,14.40
2022-10-21T18:46:18.588Z,8.60
2022-10-21T18:48:45.852Z,15.63
2022-10-21T18:51:15.679Z,15.23
2022-10-21T18:53:46.080Z,14.93
2022-10-21T18:56:16.998Z,15.80
2022-10-21T18:58:44.523Z,12.77
2022-10-21T19:01:12.617Z,18.33
2022-10-21T19:03:39.972Z,12.88
2022-10-21T19:06:29.819Z,19.65
2022-10-21T19:08:56.842Z,16.52
2022-10-21T19:11:24.054Z,17.02
2022-10-21T19:13:50.911Z,12.25
2022-10-21T19:16:17.805Z,16.23
2022-10-21T19:18:44.766Z,13.85
2022-10-21T19:21:13.118Z,13.50
2022-10-21T19:23:40.079Z,21.83
2022-10-21T19:26:08.902Z,11.43
2022-10-21T19:28:36.706Z,13.48
2022-10-21T19:31:03.923Z,21.33
2022-10-21T19:33:31.201Z,7.15
2022-10-21T19:36:02.638Z,12.23
2022-10-21T19:38:43.781Z,15.57
2022-10-21T19:41:15.900Z,14.73
2022-10-21T19:43:43.461Z,17.50
2022-10-21T19:46:14.685Z,13.07
2022-10-21T19:48:41.558Z,14.52
2022-10-21T19:51:15.763Z,21.63
2022-10-21T19:53:45.283Z,14.52
2022-10-21T19:56:13.237Z,18.38
2022-10-21T19:58:41.254Z,13.95
2022-10-21T20:01:11.970Z,12.45
2022-10-21T20:03:41.024Z,12.23
2022-10-21T20:06:09.956Z,9.70
2022-10-21T20:08:40.065Z,14.55
2022-10-21T20:11:27.279Z,13.07
2022-10-21T20:13:54.823Z,14.63
2022-10-21T20:16:24.012Z,9.05
2022-10-21T20:18:51.049Z,16.58
2022-10-21T20:21:18.312Z,18.00
2022-10-21T20:23:45.260Z,9.27
2022-10-21T20:26:12.541Z,27.25
2022-10-21T20:28:39.485Z,19.08
2022-10-21T20:31:09.087Z,15.43
2022-10-21T20:33:41.639Z,15.23
2022-10-21T20:36:12.673Z,10.27
2022-10-21T20:38:39.923Z,13.88
2022-10-21T20:41:09.745Z,9.10
2022-10-21T20:43:38.747Z,8.73
2022-10-21T20:46:08.998Z,12.10
2022-10-21T20:48:36.985Z,13.23
2022-10-21T20:51:12.154Z,10.90
2022-10-21T20:53:40.413Z,8.23
2022-10-21T20:56:07.611Z,15.63
2022-10-21T20:58:36.386Z,12.80
2022-10-21T21:01:11.973Z,12.35
2022-10-21T21:03:41.886Z,13.07
2022-10-21T21:06:10.250Z,12.60
2022-10-21T21:08:44.597Z,15.60
2022-10-21T21:11:16.424Z,7.97
2022-10-21T21:13:44.769Z,14.20
2022-10-21T21:16:19.912Z,13.50
2022-10-21T21:18:57.431Z,7.95
2022-10-21T21:21:26.979Z,9.07
2022-10-21T21:23:54.862Z,6.68
2022-10-21T21:26:27.560Z,11.65
2022-10-21T21:28:55.006Z,7.20
2022-10-21T21:31:24.280Z,12.70
2022-10-21T21:33:51.438Z,7.78
2022-10-21T21:36:19.991Z,8.85
2022-10-21T21:38:47.549Z,9.68
2022-10-21T21:41:16.775Z,7.03
2022-10-21T21:43:46.024Z,14.10
2022-10-21T21:46:13.001Z,9.63
2022-10-21T21:48:40.550Z,6.15
2022-10-21T21:51:12.782Z,9.50
2022-10-21T21:53:39.671Z,6.80
2022-10-21T21:56:10.146Z,4.72
2022-10-21T21:58:38.380Z,5.45
2022-10-21T22:01:14.281Z,6.88
2022-10-21T22:03:41.487Z,5.13
2022-10-21T22:06:08.912Z,5.93
2022-10-21T22:08:39.394Z,6.88
2022-10-21T22:11:08.984Z,3.97
2022-10-21T22:13:36.939Z,5.93
2022-10-21T22:16:04.422Z,12.93
2022-10-21T22:18:31.432Z,13.10
2022-10-21T22:21:00.437Z,14.48
2022-10-21T22:23:28.084Z,6.05
2022-10-21T22:25:57.004Z,5.70
2022-10-21T22:28:24.460Z,3.83
2022-10-21T22:31:03.508Z,3.78
2022-10-21T22:33:31.393Z,8.73
2022-10-21T22:35:58.721Z,7.30
2022-10-21T22:38:25.697Z,4.78
2022-10-21T22:40:54.446Z,5.47
2022-10-21T22:43:22.075Z,4.30
2022-10-21T22:45:49.235Z,5.40
2022-10-21T22:48:16.751Z,4.80
2022-10-21T22:50:44.037Z,4.55
2022-10-21T22:53:11.312Z,6.68
2022-10-21T22:55:39.413Z,8.27
2022-10-21T22:58:06.721Z,6.78
2022-10-21T23:00:33.751Z,6.63
2022-10-21T23:03:00.687Z,9.63
2022-10-21T23:05:27.568Z,4.13
2022-10-21T23:07:54.417Z,5.85
2022-10-21T23:10:21.361Z,8.63
2022-10-21T23:12:48.386Z,5.80
2022-10-21T23:15:15.278Z,4.60
2022-10-21T23:17:42.158Z,5.45
2022-10-21T23:20:09.608Z,4.65
2022-10-21T23:22:36.483Z,7.32
2022-10-21T23:25:03.505Z,3.05
2022-10-21T23:27:30.447Z,7.80
2022-10-21T23:29:57.362Z,4.72
2022-10-21T23:32:24.355Z,5.15
2022-10-21T23:34:51.234Z,4.88
2022-10-21T23:37:18.107Z,7.68
2022-10-21T23:39:44.949Z,6.40
2022-10-21T23:42:11.857Z,4.13
2022-10-21T23:44:38.706Z,5.45
2022-10-21T23:47:05.608Z,12.00
2022-10-21T23:49:32.516Z,6.13
2022-10-21T23:51:59.494Z,3.17
2022-10-21T23:54:26.370Z,4.00
2022-10-21T23:56:53.260Z,4.13
2022-10-21T23:59:22.122Z,5.40
